BGY weather

Il Caravaggio International Airport
Bergamo, Lombardy, Italy

Public forecast

Using degrees Celsius for public forecast. Weather courtesy of forecast.io.

Current aviation weather report (METAR) for Il Caravaggio International Airport

Retrieved 2019/11/17 23:20 UTC (36 minutes ago):

LIME 172320Z 04003KT 010V120 0150 R28/0650N FG VV002 05/05 Q1007 NOSIG

Aviation forecast (TAF) for Il Caravaggio International Airport

Retrieved 2019/11/17 18:00 UTC (6 hours ago):

TAF LIME 171700Z 1718/1818 VRB05KT 7000 SCT015 BKN050 PROB40 TEMPO 1721/1803 4000 SHRA TEMPO 1803/1807 0800 BCFG BECMG 1816/1818 4000 RA